YKC weather

Collins Bay Airport
Collins Bay, Saskatchewan, Canada

Public forecast

Using degrees Celsius for public forecast. Weather courtesy of forecast.io.

METAR (pilot weather report)

Closest report is Key Lake Airport, 85.6 nm (158.5 km) SW. Retrieved 2019/05/23 08:00 UTC (47 minutes ago):

CYKJ 230800Z AUTO 08006KT 9SM FEW120 BKN140 03/M03 A3013 RMK SLP224

TAF (pilot weather forecast)

Forecast is more than 12 hours old.

Closest forecast is Key Lake Airport, 85.6 nm (158.5 km) SW. Retrieved 2019/05/22 19:00 UTC (14 hours ago):

TAF CYKJ 221838Z 2219/2224 07015KT P6SM BKN120 RMK FCST BASED ON AUTO OBS. NXT FCST WILL BE ISSUED AT 230945Z